Time;durP1;ratioP1;P1;durP2;ratioP2;P2;SDS_P1;SDS_P2;PMS_P1;PMS_P2;Temp;Humidity;BMP_temperature;BMP_pressure;BME280_temperature;BME280_humidity;BME280_pressure;Samples;Min_cycle;Max_cycle;Signal;HPM_P1;HPM_P2
2022/11/21 00:00:30;;;;;;;5.63;3.78;;;2.50;99.90;;;;;;4996659;28;20035;-78
2022/11/21 00:03:00;;;;;;;9.23;3.90;;;2.50;99.90;;;;;;5004283;28;20061;-78
2022/11/21 00:05:31;;;;;;;4.63;3.85;;;2.60;99.90;;;;;;5005786;28;20035;-79
2022/11/21 00:07:57;;;;;;;23.95;4.45;;;2.60;99.90;;;;;;4989901;28;20039;-78
2022/11/21 00:10:24;;;;;;;4.80;3.70;;;2.60;99.90;;;;;;4987556;28;20030;-78
2022/11/21 00:12:55;;;;;;;5.75;3.80;;;2.70;99.90;;;;;;4991158;28;20023;-78
2022/11/21 00:15:22;;;;;;;5.22;4.13;;;2.70;99.90;;;;;;4993865;28;20478;-78
2022/11/21 00:17:48;;;;;;;5.85;3.72;;;2.70;99.90;;;;;;4992905;28;20232;-79
2022/11/21 00:20:13;;;;;;;5.28;4.13;;;2.70;99.90;;;;;;5008966;28;20406;-78
2022/11/21 00:22:39;;;;;;;6.38;5.32;;;2.70;99.90;;;;;;4998546;28;20093;-79
2022/11/21 00:25:05;;;;;;;20.38;4.80;;;2.70;99.90;;;;;;5003901;28;20506;-78
2022/11/21 00:27:31;;;;;;;4.80;3.55;;;2.80;99.90;;;;;;5010927;28;20034;-78
2022/11/21 00:29:57;;;;;;;5.18;3.97;;;2.80;99.90;;;;;;4988451;28;20407;-78
2022/11/21 00:32:23;;;;;;;7.50;4.38;;;2.80;99.90;;;;;;5006084;28;20058;-78
2022/11/21 00:34:48;;;;;;;17.10;4.55;;;2.80;99.90;;;;;;5003877;28;20035;-78
2022/11/21 00:37:14;;;;;;;72.18;7.20;;;2.90;99.90;;;;;;5005901;28;20033;-78
2022/11/21 00:39:40;;;;;;;44.55;5.65;;;2.80;99.90;;;;;;4980839;28;20031;-79
2022/11/21 00:42:06;;;;;;;6.38;3.92;;;2.90;99.90;;;;;;4996014;28;20525;-79
2022/11/21 00:44:31;;;;;;;11.20;3.95;;;2.90;99.90;;;;;;4988952;28;20047;-78
2022/11/21 00:46:57;;;;;;;5.55;4.35;;;2.90;99.90;;;;;;4989093;28;20042;-78
2022/11/21 00:49:23;;;;;;;13.32;3.80;;;2.90;99.90;;;;;;4979535;28;20499;-78
2022/11/21 00:51:49;;;;;;;4.32;3.25;;;2.90;99.90;;;;;;4992783;28;20370;-79
2022/11/21 00:54:14;;;;;;;9.38;4.45;;;2.90;99.90;;;;;;5001835;28;20033;-78
2022/11/21 00:56:40;;;;;;;7.45;4.65;;;2.90;99.90;;;;;;4988788;28;20088;-79
2022/11/21 00:59:06;;;;;;;5.32;4.20;;;2.90;99.90;;;;;;4992048;28;20415;-79
2022/11/21 01:01:32;;;;;;;7.78;4.57;;;3.00;99.90;;;;;;5000632;28;20038;-78
2022/11/21 01:03:58;;;;;;;6.05;4.22;;;3.00;99.90;;;;;;4993981;28;20765;-80
2022/11/21 01:06:24;;;;;;;5.97;4.00;;;3.00;99.90;;;;;;5006603;28;20041;-78
2022/11/21 01:08:50;;;;;;;5.72;4.03;;;3.10;99.90;;;;;;4984923;28;20034;-78
2022/11/21 01:11:18;;;;;;;17.85;4.63;;;3.10;99.90;;;;;;4989227;28;20050;-79
2022/11/21 01:13:44;;;;;;;5.00;3.85;;;3.10;99.90;;;;;;4990030;28;20035;-79
2022/11/21 01:16:22;;;;;;;16.42;4.40;;;3.10;99.90;;;;;;4962395;28;20038;-78
2022/11/21 01:18:48;;;;;;;103.65;9.15;;;3.20;99.90;;;;;;4992420;28;20124;-79
2022/11/21 01:21:23;;;;;;;9.82;3.83;;;3.20;99.90;;;;;;4998155;28;20101;-78
2022/11/21 01:23:49;;;;;;;6.73;3.97;;;3.20;99.90;;;;;;4986037;28;20026;-78
2022/11/21 01:26:20;;;;;;;5.57;3.85;;;3.20;99.90;;;;;;4979359;28;20045;-77
2022/11/21 01:28:46;;;;;;;8.13;3.83;;;3.20;99.90;;;;;;4963713;28;20038;-79
2022/11/21 01:31:23;;;;;;;4.78;3.60;;;3.30;99.90;;;;;;4991452;28;20034;-78
2022/11/21 01:33:49;;;;;;;7.40;3.55;;;3.40;99.90;;;;;;5004933;28;20157;-79
2022/11/21 01:36:20;;;;;;;63.45;6.10;;;3.40;99.90;;;;;;4999440;28;20485;-79
2022/11/21 01:38:51;;;;;;;7.15;4.15;;;3.40;99.90;;;;;;4994898;28;20026;-78
2022/11/21 01:41:20;;;;;;;7.60;3.80;;;3.40;99.90;;;;;;5004240;28;20069;-79
2022/11/21 01:43:46;;;;;;;7.35;3.30;;;3.40;99.90;;;;;;5012561;28;20030;-78
2022/11/21 01:46:17;;;;;;;10.10;4.07;;;3.50;99.90;;;;;;4985816;28;20038;-78
2022/11/21 01:49:06;;;;;;;7.10;3.78;;;3.50;99.90;;;;;;4983444;28;20030;-79
2022/11/21 01:51:51;;;;;;;9.55;3.50;;;3.50;99.90;;;;;;4995269;28;20110;-79
2022/11/21 01:54:51;;;;;;;7.30;3.92;;;3.50;99.90;;;;;;4990254;28;20030;-79
2022/11/21 01:57:33;;;;;;;9.82;3.92;;;3.50;99.90;;;;;;5000595;28;20105;-78
2022/11/21 02:00:16;;;;;;;5.28;4.25;;;3.50;99.90;;;;;;4987990;28;20042;-78
2022/11/21 02:02:46;;;;;;;6.88;3.83;;;3.60;99.90;;;;;;4994686;28;20026;-79
2022/11/21 02:05:18;;;;;;;5.95;3.28;;;3.60;99.90;;;;;;4965541;28;20105;-78
2022/11/21 02:07:46;;;;;;;13.07;4.68;;;3.60;99.90;;;;;;4994339;28;20029;-78
2022/11/21 02:10:13;;;;;;;8.85;4.10;;;3.60;99.90;;;;;;5002494;28;20142;-78
2022/11/21 02:12:49;;;;;;;13.32;4.20;;;3.50;99.90;;;;;;5001391;28;20018;-79
2022/11/21 02:15:16;;;;;;;5.82;3.58;;;3.60;99.90;;;;;;4978866;28;20434;-79
2022/11/21 02:17:42;;;;;;;6.00;3.95;;;3.60;99.90;;;;;;5002737;28;20109;-79
2022/11/21 02:20:16;;;;;;;4.63;3.47;;;3.60;99.90;;;;;;4998479;28;20480;-78
2022/11/21 02:23:12;;;;;;;6.53;3.60;;;3.60;99.90;;;;;;5004584;28;20030;-79
2022/11/21 02:25:43;;;;;;;5.88;3.42;;;3.70;99.90;;;;;;4961945;28;20168;-78
2022/11/21 02:28:15;;;;;;;7.18;3.38;;;3.70;99.90;;;;;;4999683;28;20050;-78
2022/11/21 02:30:42;;;;;;;10.05;3.60;;;3.70;99.90;;;;;;5005574;28;20049;-79
2022/11/21 02:33:08;;;;;;;3.47;2.83;;;3.70;99.90;;;;;;4999491;28;20065;-79
2022/11/21 02:35:34;;;;;;;7.97;3.33;;;3.70;99.90;;;;;;4989179;28;20035;-79
2022/11/21 02:38:15;;;;;;;10.65;2.80;;;3.80;99.90;;;;;;4999468;28;20125;-78
2022/11/21 02:40:47;;;;;;;4.68;2.80;;;3.70;99.90;;;;;;5000895;28;20549;-79
2022/11/21 02:43:21;;;;;;;4.40;2.55;;;3.70;99.90;;;;;;5003448;28;20030;-78
2022/11/21 02:45:46;;;;;;;6.10;2.80;;;3.70;99.90;;;;;;4976409;28;20401;-79
2022/11/21 02:48:13;;;;;;;5.97;2.67;;;3.70;99.90;;;;;;4999023;28;20129;-79
2022/11/21 02:50:41;;;;;;;7.22;3.03;;;3.70;99.90;;;;;;4974477;28;20121;-79
2022/11/21 02:53:10;;;;;;;13.20;2.83;;;3.70;99.90;;;;;;4993569;28;20030;-78
2022/11/21 02:55:37;;;;;;;3.58;2.15;;;3.70;99.90;;;;;;4994912;28;20046;-79
2022/11/21 02:58:03;;;;;;;6.82;2.63;;;3.70;99.90;;;;;;5000906;28;20065;-78
2022/11/21 03:00:29;;;;;;;7.05;2.50;;;3.70;99.90;;;;;;4981752;28;20735;-78
2022/11/21 03:02:55;;;;;;;4.60;2.60;;;3.70;99.90;;;;;;5001601;28;20073;-78
2022/11/21 03:05:21;;;;;;;41.72;4.43;;;3.70;99.90;;;;;;5000184;28;20037;-78
2022/11/21 03:07:48;;;;;;;3.67;2.03;;;3.70;99.90;;;;;;5000898;28;20479;-79
2022/11/21 03:10:14;;;;;;;8.10;2.38;;;3.80;99.90;;;;;;4995143;28;20034;-79
2022/11/21 03:12:41;;;;;;;5.80;2.35;;;3.70;99.90;;;;;;4994509;28;20026;-79
2022/11/21 03:15:09;;;;;;;6.40;2.60;;;3.70;99.90;;;;;;4991259;28;20038;-79
2022/11/21 03:17:35;;;;;;;6.70;2.60;;;3.70;99.90;;;;;;4997732;28;20026;-79
2022/11/21 03:20:01;;;;;;;5.18;3.20;;;3.70;99.90;;;;;;4979899;28;20061;-78
2022/11/21 03:22:27;;;;;;;5.75;2.60;;;3.80;99.90;;;;;;4997943;28;20030;-80
2022/11/21 03:24:53;;;;;;;8.50;3.28;;;3.80;99.90;;;;;;4991700;28;20429;-79
2022/11/21 03:27:18;;;;;;;6.45;2.40;;;3.80;99.90;;;;;;5003331;28;20038;-79
2022/11/21 03:29:44;;;;;;;9.23;2.58;;;3.90;99.90;;;;;;4993499;28;20441;-79
2022/11/21 03:32:10;;;;;;;6.03;2.45;;;3.90;99.90;;;;;;5003983;28;20438;-79
2022/11/21 03:34:36;;;;;;;6.10;2.55;;;3.90;99.90;;;;;;4983261;28;20029;-79
2022/11/21 03:37:02;;;;;;;3.40;2.28;;;3.90;99.90;;;;;;4968718;28;20026;-80
2022/11/21 03:39:31;;;;;;;8.43;2.75;;;3.90;99.90;;;;;;5003813;28;20141;-78
2022/11/21 03:41:56;;;;;;;5.05;2.17;;;3.90;99.90;;;;;;4977841;28;20039;-79
2022/11/21 03:44:22;;;;;;;4.55;2.30;;;3.90;99.90;;;;;;4952323;28;20031;-79
2022/11/21 03:46:48;;;;;;;2.42;1.80;;;3.90;99.90;;;;;;4966267;28;20075;-80
2022/11/21 03:49:15;;;;;;;3.08;2.30;;;3.90;99.90;;;;;;4998418;28;20049;-79
2022/11/21 03:51:42;;;;;;;4.07;2.38;;;3.90;99.90;;;;;;4996496;28;20629;-79
2022/11/21 03:54:09;;;;;;;7.28;2.28;;;4.00;99.90;;;;;;4981275;28;20499;-79
2022/11/21 03:56:35;;;;;;;3.80;2.20;;;3.90;99.90;;;;;;4999563;28;20026;-78
2022/11/21 03:59:01;;;;;;;5.88;2.00;;;3.90;99.90;;;;;;4991168;28;20486;-78
2022/11/21 04:01:27;;;;;;;5.22;1.92;;;4.00;99.90;;;;;;4995296;28;20045;-78
2022/11/21 04:03:53;;;;;;;3.17;2.17;;;3.90;99.90;;;;;;4983870;28;20050;-79
2022/11/21 04:06:21;;;;;;;6.20;1.92;;;3.90;99.90;;;;;;5001012;28;20113;-79
2022/11/21 04:08:48;;;;;;;2.40;1.73;;;3.90;99.90;;;;;;4990636;28;20041;-78
2022/11/21 04:11:14;;;;;;;11.70;2.20;;;4.00;99.90;;;;;;5002336;28;20026;-79
2022/11/21 04:13:39;;;;;;;5.68;2.15;;;3.90;99.90;;;;;;5002725;28;20041;-79
2022/11/21 04:16:05;;;;;;;5.15;1.77;;;3.90;99.90;;;;;;4980111;28;20037;-79
2022/11/21 04:18:33;;;;;;;4.15;2.08;;;4.00;99.90;;;;;;5003453;28;20647;-78
2022/11/21 04:21:01;;;;;;;6.70;1.90;;;4.00;99.90;;;;;;4986417;28;20033;-79
2022/11/21 04:23:27;;;;;;;3.42;1.60;;;4.00;99.90;;;;;;4993235;28;20113;-78
2022/11/21 04:25:53;;;;;;;4.20;2.00;;;4.00;99.90;;;;;;4979014;28;20701;-79
2022/11/21 04:28:19;;;;;;;3.25;1.80;;;3.90;99.90;;;;;;4998765;28;20041;-79
2022/11/21 04:30:45;;;;;;;4.53;2.05;;;4.00;99.90;;;;;;4985321;28;20030;-79
2022/11/21 04:33:12;;;;;;;5.28;1.90;;;3.90;99.90;;;;;;4999593;28;20149;-79
2022/11/21 04:35:38;;;;;;;3.58;1.65;;;4.00;99.90;;;;;;5001006;28;20034;-79
2022/11/21 04:38:04;;;;;;;7.25;1.90;;;3.90;99.90;;;;;;4997611;28;20030;-80
2022/11/21 04:40:30;;;;;;;6.88;2.17;;;3.90;99.90;;;;;;4990223;28;20030;-79
2022/11/21 04:42:56;;;;;;;5.47;2.00;;;3.90;99.90;;;;;;4981488;28;20038;-81
2022/11/21 04:45:21;;;;;;;7.70;1.77;;;3.90;99.90;;;;;;4993647;28;20066;-80
2022/11/21 04:47:49;;;;;;;5.93;1.90;;;4.00;99.90;;;;;;4988912;28;20065;-80
2022/11/21 04:50:16;;;;;;;8.32;2.15;;;4.00;99.90;;;;;;4964234;28;20053;-79
2022/11/21 04:52:47;;;;;;;5.85;1.90;;;4.00;99.90;;;;;;5004684;28;20592;-79
2022/11/21 04:55:13;;;;;;;5.75;1.80;;;4.00;99.90;;;;;;4980206;28;20515;-80
2022/11/21 04:57:39;;;;;;;2.97;1.58;;;4.00;99.90;;;;;;4977940;28;20153;-80
2022/11/21 05:00:05;;;;;;;2.03;1.42;;;4.00;99.90;;;;;;5003834;28;20033;-80
2022/11/21 05:02:32;;;;;;;4.28;1.60;;;4.00;99.90;;;;;;4968530;28;20121;-79
2022/11/21 05:04:58;;;;;;;6.05;1.50;;;3.90;99.90;;;;;;4982562;28;20038;-80
2022/11/21 05:07:24;;;;;;;2.85;1.38;;;4.00;99.90;;;;;;4999765;28;20047;-80
2022/11/21 05:09:50;;;;;;;5.65;1.40;;;4.00;99.90;;;;;;4996389;28;20138;-80
2022/11/21 05:15:00;;;;;;;2.70;1.30;;;4.00;99.90;;;;;;4991842;28;20511;-79
2022/11/21 05:17:28;;;;;;;2.22;1.08;;;3.90;99.90;;;;;;4992738;28;20038;-78
2022/11/21 05:19:53;;;;;;;1.63;1.30;;;3.90;99.90;;;;;;4989384;28;20045;-80
2022/11/21 05:22:19;;;;;;;3.53;1.20;;;3.90;99.90;;;;;;4987562;28;20033;-80
2022/11/21 05:24:45;;;;;;;2.53;1.33;;;3.90;99.90;;;;;;4999662;28;20763;-79
2022/11/21 05:27:11;;;;;;;5.47;1.05;;;3.80;99.90;;;;;;4994315;28;20090;-79
2022/11/21 05:29:37;;;;;;;1.20;1.10;;;3.80;99.90;;;;;;5006611;28;20034;-79
2022/11/21 05:32:03;;;;;;;25.25;2.10;;;3.90;99.90;;;;;;4991364;28;20359;-77
2022/11/21 05:34:28;;;;;;;2.55;1.23;;;3.80;99.90;;;;;;4977683;28;20047;-78
2022/11/21 05:36:57;;;;;;;1.60;1.40;;;3.80;99.90;;;;;;5001285;28;20037;-78
2022/11/21 05:39:24;;;;;;;2.40;1.17;;;3.80;99.90;;;;;;5007278;28;20037;-78
2022/11/21 05:41:50;;;;;;;5.80;2.45;;;3.80;99.90;;;;;;5002052;28;20040;-77
2022/11/21 05:44:15;;;;;;;1.65;1.23;;;3.80;99.90;;;;;;5000935;28;20109;-78
2022/11/21 05:46:41;;;;;;;1.95;1.27;;;3.80;99.90;;;;;;4994069;28;20524;-78
2022/11/21 05:49:07;;;;;;;5.68;1.77;;;3.80;99.90;;;;;;4978565;28;20034;-78
2022/11/21 05:51:33;;;;;;;4.90;1.40;;;3.80;99.90;;;;;;4994923;28;20438;-79
2022/11/21 05:53:59;;;;;;;2.95;1.30;;;3.80;99.90;;;;;;4988083;28;20037;-78
2022/11/21 05:56:25;;;;;;;7.25;1.83;;;3.80;99.90;;;;;;4981685;28;20443;-78
2022/11/21 05:58:53;;;;;;;3.05;1.40;;;3.80;99.90;;;;;;4986874;28;20069;-78
2022/11/21 06:03:25;;;;;;;3.63;1.58;;;3.90;99.90;;;;;;4982398;28;20065;-78
2022/11/21 06:04:06;;;;;;;4.65;1.40;;;3.90;99.90;;;;;;5002282;28;20546;-78
2022/11/21 06:06:31;;;;;;;7.38;1.40;;;3.80;99.90;;;;;;4999473;28;20445;-78
2022/11/21 06:08:57;;;;;;;3.70;1.52;;;3.80;99.90;;;;;;5000796;28;20045;-79
2022/11/21 06:11:23;;;;;;;3.67;1.80;;;3.80;99.90;;;;;;4989186;28;20137;-80
2022/11/21 06:13:49;;;;;;;3.58;1.30;;;3.80;99.90;;;;;;4993963;28;20081;-81
2022/11/21 06:16:17;;;;;;;3.88;1.50;;;3.80;99.90;;;;;;5003041;28;20026;-79
2022/11/21 06:18:48;;;;;;;4.85;1.30;;;3.80;99.90;;;;;;4998133;28;20034;-80
2022/11/21 06:21:16;;;;;;;11.52;1.38;;;3.80;99.90;;;;;;4992393;28;20034;-78
2022/11/21 06:23:43;;;;;;;8.23;1.50;;;3.80;99.90;;;;;;5006070;28;20038;-79
2022/11/21 06:26:13;;;;;;;3.90;1.40;;;3.80;99.90;;;;;;5005588;28;20725;-80
2022/11/21 06:28:40;;;;;;;5.25;1.35;;;3.80;99.90;;;;;;4998844;28;20038;-78
2022/11/21 06:31:11;;;;;;;6.03;1.23;;;3.80;99.90;;;;;;4989553;28;20042;-79
2022/11/21 06:33:37;;;;;;;3.80;1.30;;;3.80;99.90;;;;;;5000000;28;20109;-78
2022/11/21 06:36:09;;;;;;;4.43;1.20;;;3.90;99.90;;;;;;4989353;28;20047;-78
2022/11/21 06:38:35;;;;;;;5.35;1.40;;;3.80;99.90;;;;;;5002431;28;20042;-79
2022/11/21 06:41:12;;;;;;;62.58;4.18;;;3.80;99.90;;;;;;5001536;28;20478;-80
2022/11/21 06:43:38;;;;;;;2.65;1.67;;;3.80;99.90;;;;;;5010708;28;20058;-79
2022/11/21 06:46:04;;;;;;;2.95;1.40;;;3.90;99.90;;;;;;4994757;28;20493;-79
2022/11/21 06:48:34;;;;;;;3.17;1.50;;;3.90;99.90;;;;;;5002321;28;20057;-80
2022/11/21 06:51:21;;;;;;;21.90;1.95;;;3.90;99.90;;;;;;4973156;28;20487;-80
2022/11/21 06:53:54;;;;;;;4.22;1.70;;;3.90;99.90;;;;;;4998514;28;20053;-80
2022/11/21 06:56:21;;;;;;;35.03;2.55;;;3.90;99.90;;;;;;5002537;28;20033;-79
2022/11/21 06:58:47;;;;;;;4.25;1.60;;;3.90;99.90;;;;;;5006474;28;20093;-80
2022/11/21 07:01:12;;;;;;;3.38;1.83;;;3.90;99.90;;;;;;4992409;28;20140;-80
2022/11/21 07:03:38;;;;;;;22.13;2.47;;;3.90;99.90;;;;;;4995729;28;20550;-80
2022/11/21 07:06:05;;;;;;;6.55;1.80;;;3.90;99.90;;;;;;4994685;28;20049;-79
2022/11/21 07:08:32;;;;;;;1.33;1.23;;;3.90;99.90;;;;;;4997962;28;20068;-79
2022/11/21 07:11:03;;;;;;;44.30;3.20;;;3.80;99.90;;;;;;4992938;28;20034;-79
2022/11/21 07:13:29;;;;;;;30.58;2.83;;;3.90;99.90;;;;;;4991072;28;20034;-80
2022/11/21 07:16:00;;;;;;;2.50;1.50;;;3.90;99.90;;;;;;4994166;28;20028;-79
2022/11/21 07:18:26;;;;;;;2.92;1.45;;;3.90;99.90;;;;;;4975710;28;20108;-79
2022/11/21 07:20:56;;;;;;;7.47;1.75;;;3.90;99.90;;;;;;4992823;28;20018;-79
2022/11/21 07:23:21;;;;;;;11.40;1.80;;;3.90;99.90;;;;;;4978333;28;20099;-78
2022/11/21 07:25:47;;;;;;;6.45;1.88;;;3.90;99.90;;;;;;4977695;28;20052;-79
2022/11/21 07:28:13;;;;;;;4.60;1.60;;;3.90;99.90;;;;;;4968746;28;20049;-78
2022/11/21 07:30:38;;;;;;;6.63;2.17;;;3.90;99.90;;;;;;4994009;28;20069;-79
2022/11/21 07:33:06;;;;;;;2.90;1.70;;;3.90;99.90;;;;;;4984372;28;20030;-80
2022/11/21 07:35:33;;;;;;;1.70;1.35;;;3.90;99.90;;;;;;4979049;28;20114;-77
2022/11/21 07:37:59;;;;;;;3.90;1.70;;;3.90;99.90;;;;;;4999775;28;20026;-81
2022/11/21 07:40:26;;;;;;;68.13;3.55;;;3.90;99.90;;;;;;4948088;28;20038;-78
2022/11/21 07:42:52;;;;;;;2.67;1.60;;;4.00;99.90;;;;;;4996964;28;20022;-78
2022/11/21 07:45:18;;;;;;;18.95;2.42;;;4.00;99.90;;;;;;4966011;28;20031;-77
2022/11/21 07:47:55;;;;;;;93.70;4.80;;;3.90;99.90;;;;;;4997645;28;20038;-79
2022/11/21 07:50:21;;;;;;;31.33;2.63;;;3.90;99.90;;;;;;4989801;28;20036;-79
2022/11/21 07:52:47;;;;;;;55.80;3.40;;;3.90;99.90;;;;;;5003474;28;20414;-79
2022/11/21 07:55:12;;;;;;;4.20;1.33;;;4.00;99.90;;;;;;4993115;28;20343;-79
2022/11/21 07:57:38;;;;;;;1.25;1.15;;;4.00;99.90;;;;;;5013055;28;20034;-79
2022/11/21 08:00:04;;;;;;;19.25;2.22;;;4.00;99.90;;;;;;5013416;28;20133;-79
2022/11/21 08:02:30;;;;;;;2.05;1.50;;;4.00;99.90;;;;;;4975146;28;20097;-79
2022/11/21 08:04:56;;;;;;;3.42;1.88;;;4.00;99.90;;;;;;4994564;28;20107;-79
2022/11/21 08:07:22;;;;;;;20.05;2.25;;;4.10;99.90;;;;;;4985048;28;20031;-79
2022/11/21 08:09:48;;;;;;;7.00;2.00;;;4.10;99.90;;;;;;5005475;28;20234;-79
2022/11/21 08:12:14;;;;;;;3.22;1.85;;;4.20;99.90;;;;;;5003797;28;20672;-79
2022/11/21 08:14:40;;;;;;;6.38;1.65;;;4.20;99.90;;;;;;5001870;28;20076;-79
2022/11/21 08:17:06;;;;;;;5.97;2.30;;;4.30;99.90;;;;;;4994626;28;20466;-79
2022/11/21 08:19:33;;;;;;;6.78;2.22;;;4.30;99.90;;;;;;4997318;28;20035;-79
2022/11/21 08:21:59;;;;;;;77.43;4.65;;;4.40;99.90;;;;;;4997898;28;20045;-79
2022/11/21 08:24:25;;;;;;;7.97;1.95;;;4.40;99.90;;;;;;5000465;28;20419;-80
2022/11/21 08:26:51;;;;;;;6.65;2.22;;;4.40;99.90;;;;;;4982848;28;20127;-79
2022/11/21 08:29:17;;;;;;;5.90;2.10;;;4.40;99.90;;;;;;4998633;28;20502;-79
2022/11/21 08:31:43;;;;;;;3.47;1.88;;;4.30;99.90;;;;;;4992177;28;20084;-79
2022/11/21 08:34:10;;;;;;;8.82;1.92;;;4.30;99.90;;;;;;4999340;28;20486;-78
2022/11/21 08:36:36;;;;;;;1.65;1.40;;;4.30;99.90;;;;;;4981027;28;20046;-79
2022/11/21 08:39:03;;;;;;;2.25;1.92;;;4.30;99.90;;;;;;5005715;28;20598;-79
2022/11/21 08:44:13;;;;;;;11.57;2.00;;;4.30;99.90;;;;;;4977111;28;20037;-79
2022/11/21 08:46:39;;;;;;;48.33;3.47;;;4.30;99.90;;;;;;4964273;28;20026;-79
2022/11/21 08:49:06;;;;;;;16.65;2.25;;;4.30;99.90;;;;;;4997547;28;20041;-80
2022/11/21 08:51:32;;;;;;;3.67;1.50;;;4.30;99.90;;;;;;4999583;28;20069;-79
2022/11/21 08:53:58;;;;;;;24.30;1.98;;;4.40;99.90;;;;;;5001029;28;20026;-79
2022/11/21 08:56:24;;;;;;;1.63;1.20;;;4.40;99.90;;;;;;4998708;28;20406;-79
2022/11/21 08:58:50;;;;;;;2.03;1.15;;;4.50;99.90;;;;;;4981325;28;20026;-79
2022/11/21 09:01:16;;;;;;;2.17;1.25;;;4.50;99.90;;;;;;4994915;28;20057;-79
2022/11/21 09:03:42;;;;;;;6.45;1.45;;;4.50;99.90;;;;;;5001011;28;20026;-79
2022/11/21 09:06:08;;;;;;;1.65;0.90;;;4.50;99.90;;;;;;5006445;28;20038;-79
2022/11/21 09:08:34;;;;;;;1.88;0.95;;;4.50;99.90;;;;;;4980695;28;20449;-80
2022/11/21 09:11:08;;;;;;;1.38;0.82;;;4.30;99.90;;;;;;4999416;28;20031;-79
2022/11/21 09:13:34;;;;;;;3.65;1.20;;;4.30;99.90;;;;;;4954357;28;20531;-79
2022/11/21 09:18:45;;;;;;;1.42;0.75;;;4.20;99.90;;;;;;5000599;28;20031;-79
2022/11/21 09:21:17;;;;;;;12.48;1.30;;;4.20;99.90;;;;;;4976906;28;20073;-79
2022/11/21 09:23:44;;;;;;;1.83;1.00;;;4.20;99.90;;;;;;4963444;28;20080;-79
2022/11/21 09:26:10;;;;;;;4.57;2.15;;;4.20;99.90;;;;;;4999517;28;20061;-80
2022/11/21 09:28:36;;;;;;;1.60;1.10;;;4.10;99.90;;;;;;4990524;28;20025;-79
2022/11/21 09:31:03;;;;;;;1.52;1.30;;;4.00;99.90;;;;;;5001283;28;20658;-79
2022/11/21 09:33:29;;;;;;;1.88;1.42;;;4.00;99.90;;;;;;4995337;28;20037;-79
2022/11/21 09:35:57;;;;;;;4.30;1.15;;;4.00;99.90;;;;;;4989821;28;20038;-79
2022/11/21 09:38:23;;;;;;;9.20;1.52;;;3.90;99.90;;;;;;4984995;28;20121;-79
2022/11/21 09:40:49;;;;;;;5.22;1.35;;;4.00;99.90;;;;;;4983116;28;20561;-79
2022/11/21 09:43:37;;;;;;;1.15;1.05;;;4.00;99.90;;;;;;4987167;28;20077;-81
2022/11/21 09:46:15;;;;;;;3.17;1.50;;;4.00;99.90;;;;;;4986925;28;20027;-79
2022/11/21 09:49:03;;;;;;;1.77;1.25;;;4.00;99.90;;;;;;4982652;28;20065;-79
2022/11/21 09:51:30;;;;;;;20.98;1.77;;;4.10;99.90;;;;;;4988112;28;20026;-79
2022/11/21 09:54:10;;;;;;;1.52;1.23;;;4.10;99.90;;;;;;4992018;28;20026;-79
2022/11/21 09:56:41;;;;;;;2.10;1.58;;;4.10;99.90;;;;;;4990353;28;20034;-79
2022/11/21 09:59:33;;;;;;;5.28;1.70;;;4.20;99.90;;;;;;4991348;28;20034;-80
2022/11/21 10:02:00;;;;;;;6.07;1.98;;;4.30;99.90;;;;;;4987196;28;20046;-79
2022/11/21 10:04:26;;;;;;;3.33;1.90;;;4.30;99.90;;;;;;4985543;28;20041;-79
2022/11/21 10:07:10;;;;;;;6.63;2.40;;;4.40;99.90;;;;;;4972008;28;20502;-81
2022/11/21 10:10:07;;;;;;;2.60;1.80;;;4.40;99.90;;;;;;4976601;28;20038;-79
2022/11/21 10:13:12;;;;;;;18.98;2.25;;;4.50;99.90;;;;;;4979652;28;20054;-80
2022/11/21 10:15:53;;;;;;;3.33;1.55;;;4.50;99.90;;;;;;4987894;28;20080;-79
2022/11/21 10:18:22;;;;;;;3.05;1.83;;;4.60;99.90;;;;;;4964841;28;20165;-79
2022/11/21 10:21:19;;;;;;;2.05;1.80;;;4.60;99.90;;;;;;4985672;28;20093;-79
2022/11/21 10:24:03;;;;;;;7.28;1.83;;;4.60;99.90;;;;;;4977818;28;20121;-79
2022/11/21 10:27:05;;;;;;;4.60;1.90;;;4.70;99.90;;;;;;4973358;28;20030;-79
2022/11/21 10:29:35;;;;;;;21.95;2.45;;;4.70;99.90;;;;;;4984782;28;20037;-79
2022/11/21 10:32:10;;;;;;;3.33;1.98;;;4.80;99.90;;;;;;4976994;28;20050;-80
2022/11/21 10:34:38;;;;;;;7.10;2.00;;;4.90;99.90;;;;;;4986730;28;20045;-79
2022/11/21 10:37:23;;;;;;;1.55;1.17;;;4.80;99.90;;;;;;4992889;28;20034;-80
2022/11/21 10:39:50;;;;;;;8.00;2.20;;;4.80;99.90;;;;;;4993300;28;20497;-80
2022/11/21 10:42:31;;;;;;;2.50;1.58;;;4.80;99.90;;;;;;4986540;28;20045;-80
2022/11/21 10:45:18;;;;;;;3.70;1.85;;;4.80;99.90;;;;;;4971547;28;20022;-80
2022/11/21 10:47:46;;;;;;;2.67;1.90;;;4.80;99.90;;;;;;4988858;28;20026;-80
2022/11/21 10:50:39;;;;;;;4.22;2.08;;;4.80;99.90;;;;;;4976012;28;20046;-80
2022/11/21 10:56:20;;;;;;;5.82;2.25;;;4.80;99.90;;;;;;4987773;28;20036;-80
2022/11/21 10:58:49;;;;;;;3.17;2.00;;;5.00;99.90;;;;;;4994803;28;20030;-79
2022/11/21 11:01:32;;;;;;;5.15;2.30;;;5.00;99.90;;;;;;4958264;28;20039;-79
2022/11/21 11:04:11;;;;;;;3.95;2.25;;;5.10;99.90;;;;;;4973673;28;20613;-80
2022/11/21 11:06:41;;;;;;;8.27;2.80;;;5.10;99.90;;;;;;4966703;28;20086;-80
2022/11/21 11:09:27;;;;;;;3.72;2.13;;;5.20;99.90;;;;;;4977907;28;20414;-80
2022/11/21 11:12:12;;;;;;;6.45;2.50;;;5.30;99.90;;;;;;4991268;28;20061;-79
2022/11/21 11:14:37;;;;;;;2.85;2.05;;;5.30;99.90;;;;;;4995405;28;20030;-79
2022/11/21 11:17:03;;;;;;;5.07;2.35;;;5.30;99.90;;;;;;4996829;28;20069;-80
2022/11/21 11:19:29;;;;;;;4.03;2.70;;;5.30;99.90;;;;;;4983133;28;20035;-80
2022/11/21 11:21:55;;;;;;;4.03;2.22;;;5.30;99.90;;;;;;4995528;28;20068;-80
2022/11/21 11:24:26;;;;;;;6.60;2.45;;;5.30;99.90;;;;;;4957938;28;20099;-80
2022/11/21 11:27:02;;;;;;;4.53;2.85;;;5.30;99.90;;;;;;4992279;28;20505;-79
2022/11/21 11:29:30;;;;;;;2.83;2.42;;;5.30;99.90;;;;;;4995572;28;20038;-79
2022/11/21 11:32:16;;;;;;;20.02;3.20;;;5.30;99.90;;;;;;4993662;28;20034;-79
2022/11/21 11:34:59;;;;;;;23.13;3.17;;;5.30;99.90;;;;;;4993464;28;20559;-80
2022/11/21 11:37:40;;;;;;;3.58;2.40;;;5.30;99.90;;;;;;4986849;28;20545;-80
2022/11/21 11:40:06;;;;;;;4.75;2.50;;;5.30;99.90;;;;;;4989282;28;20092;-80
2022/11/21 11:48:39;;;;;;;5.38;3.50;;;5.20;99.90;;;;;;4979939;28;20039;-80
2022/11/21 11:51:19;;;;;;;5.15;3.78;;;5.10;99.90;;;;;;4970798;28;20402;-80
2022/11/21 11:53:50;;;;;;;4.53;2.78;;;5.10;99.90;;;;;;4980491;28;20034;-79
2022/11/21 11:56:21;;;;;;;2.50;2.30;;;5.00;99.90;;;;;;4967113;28;20053;-80
2022/11/21 11:58:59;;;;;;;3.40;2.53;;;5.00;99.90;;;;;;4968502;28;20037;-80
2022/11/21 12:01:42;;;;;;;3.67;2.40;;;4.90;99.90;;;;;;4982379;28;20038;-80
2022/11/21 12:04:11;;;;;;;4.85;2.38;;;4.80;99.90;;;;;;4984297;28;20034;-80
2022/11/21 12:06:49;;;;;;;3.90;2.25;;;4.80;99.90;;;;;;4987367;28;20085;-80
2022/11/21 12:09:53;;;;;;;4.40;1.88;;;4.80;99.90;;;;;;4974307;28;20038;-80
2022/11/21 12:12:35;;;;;;;3.30;2.05;;;4.70;99.90;;;;;;4979209;28;20104;-79
2022/11/21 12:18:13;;;;;;;3.05;2.20;;;4.50;99.90;;;;;;4985175;28;20045;-79
2022/11/21 12:21:10;;;;;;;2.10;1.90;;;4.50;99.90;;;;;;4984946;28;20022;-80
2022/11/21 12:23:45;;;;;;;2.40;1.75;;;4.40;99.90;;;;;;4990761;28;20026;-79
2022/11/21 12:26:44;;;;;;;5.20;3.55;;;4.40;99.90;;;;;;4969193;28;20081;-79
2022/11/21 12:29:46;;;;;;;2.45;2.25;;;4.40;99.90;;;;;;4995102;28;20045;-79
2022/11/21 12:32:24;;;;;;;3.55;2.33;;;4.40;99.90;;;;;;4989892;28;20038;-80
2022/11/21 12:35:14;;;;;;;5.22;4.20;;;4.50;99.90;;;;;;4985104;28;20038;-79
2022/11/21 12:38:12;;;;;;;5.65;4.28;;;4.40;99.90;;;;;;4991186;28;20047;-79
2022/11/21 12:40:53;;;;;;;4.38;3.60;;;4.40;99.90;;;;;;4982954;28;20022;-79
2022/11/21 12:43:30;;;;;;;5.65;2.80;;;4.40;99.90;;;;;;4984949;28;20046;-79
2022/11/21 12:46:15;;;;;;;3.45;2.70;;;4.50;99.90;;;;;;4985091;28;20076;-80
2022/11/21 12:55:09;;;;;;;4.43;3.30;;;4.50;99.90;;;;;;4996810;28;20033;-80
2022/11/21 12:58:06;;;;;;;3.10;1.95;;;4.50;99.90;;;;;;4991227;28;20034;-78
2022/11/21 13:00:44;;;;;;;3.38;2.70;;;4.30;99.90;;;;;;4991652;28;20073;-79
2022/11/21 13:03:34;;;;;;;3.13;2.83;;;4.30;99.90;;;;;;4995683;28;20041;-80
2022/11/21 13:06:02;;;;;;;3.55;2.92;;;4.20;99.90;;;;;;4963230;28;20100;-77
2022/11/21 13:08:33;;;;;;;4.68;3.08;;;4.20;99.90;;;;;;5008455;28;20606;-78
2022/11/21 13:14:26;;;;;;;3.47;3.17;;;4.30;99.90;;;;;;4995902;28;20040;-79
2022/11/21 13:16:57;;;;;;;7.75;5.90;;;4.40;99.90;;;;;;4997330;28;20040;-78
2022/11/21 13:19:43;;;;;;;4.15;3.58;;;4.50;99.90;;;;;;4995687;28;20030;-78
2022/11/21 13:22:34;;;;;;;4.15;2.70;;;4.60;99.90;;;;;;4993145;28;20087;-77
2022/11/21 13:25:02;;;;;;;3.55;2.75;;;4.50;99.90;;;;;;4970273;28;20744;-77
2022/11/21 13:27:31;;;;;;;4.43;3.33;;;4.40;99.90;;;;;;4982881;28;20037;-78
2022/11/21 13:30:06;;;;;;;4.63;3.30;;;4.40;99.90;;;;;;4987385;28;20035;-78
2022/11/21 13:32:44;;;;;;;3.03;2.50;;;4.40;99.90;;;;;;4999813;28;20029;-77
2022/11/21 13:35:13;;;;;;;3.85;2.80;;;4.40;99.90;;;;;;4985438;28;20118;-77
2022/11/21 13:37:48;;;;;;;5.25;4.05;;;4.40;99.90;;;;;;4980893;28;20033;-78
2022/11/21 13:40:26;;;;;;;5.20;3.97;;;4.30;99.90;;;;;;4997042;28;20034;-78
2022/11/21 13:43:18;;;;;;;4.63;3.58;;;4.20;99.90;;;;;;5000901;28;20033;-79